sensor_id;sensor_type;location;lat;lon;timestamp;pressure;altitude;pressure_sealevel;temperature;humidity
50590;BME280;36547;50.514;30.840;2023-07-20T00:00:07;99519.72;;;17.34;65.95
50590;BME280;36547;50.514;30.840;2023-07-20T00:01:18;99518.02;;;17.33;65.80
50590;BME280;36547;50.514;30.840;2023-07-20T00:02:21;99519.72;;;17.34;65.86
50590;BME280;36547;50.514;30.840;2023-07-20T00:03:24;99515.77;;;17.28;65.87
50590;BME280;36547;50.514;30.840;2023-07-20T00:04:26;99513.21;;;17.27;65.90
50590;BME280;36547;50.514;30.840;2023-07-20T00:05:28;99510.66;;;17.25;65.87
50590;BME280;36547;50.514;30.840;2023-07-20T00:06:30;99518.85;;;17.24;65.62
50590;BME280;36547;50.514;30.840;2023-07-20T00:07:33;99514.73;;;17.20;65.53
50590;BME280;36547;50.514;30.840;2023-07-20T00:08:36;99510.34;;;17.19;65.63
50590;BME280;36547;50.514;30.840;2023-07-20T00:09:38;99510.08;;;17.22;65.67
50590;BME280;36547;50.514;30.840;2023-07-20T00:10:41;99510.34;;;17.19;65.75
50590;BME280;36547;50.514;30.840;2023-07-20T00:11:49;99517.69;;;17.17;65.95
50590;BME280;36547;50.514;30.840;2023-07-20T00:12:51;99508.64;;;17.18;65.93
50590;BME280;36547;50.514;30.840;2023-07-20T00:13:54;99512.87;;;17.11;66.34
50590;BME280;36547;50.514;30.840;2023-07-20T00:14:56;99503.84;;;17.12;66.23
50590;BME280;36547;50.514;30.840;2023-07-20T00:15:58;99505.54;;;17.13;66.19
50590;BME280;36547;50.514;30.840;2023-07-20T00:17:02;99507.24;;;17.14;66.27
50590;BME280;36547;50.514;30.840;2023-07-20T00:18:04;99517.27;;;17.12;66.36
50590;BME280;36547;50.514;30.840;2023-07-20T00:19:07;99511.17;;;17.10;66.44
50590;BME280;36547;50.514;30.840;2023-07-20T00:20:11;99507.51;;;17.11;66.42
50590;BME280;36547;50.514;30.840;2023-07-20T00:21:13;99508.36;;;17.11;66.34
50590;BME280;36547;50.514;30.840;2023-07-20T00:22:16;99506.92;;;17.07;66.47
50590;BME280;36547;50.514;30.840;2023-07-20T00:23:18;99499.86;;;17.06;66.47
50590;BME280;36547;50.514;30.840;2023-07-20T00:25:28;99509.21;;;17.12;66.50
50590;BME280;36547;50.514;30.840;2023-07-20T00:26:31;99512.27;;;16.98;66.68
50590;BME280;36547;50.514;30.840;2023-07-20T00:27:33;99512.01;;;17.01;66.45
50590;BME280;36547;50.514;30.840;2023-07-20T00:28:36;99516.79;;;16.97;66.42
50590;BME280;36547;50.514;30.840;2023-07-20T00:29:38;99512.99;;;17.00;66.46
50590;BME280;36547;50.514;30.840;2023-07-20T00:30:40;99508.02;;;16.95;66.52
50590;BME280;36547;50.514;30.840;2023-07-20T00:31:45;99514.83;;;16.99;66.46
50590;BME280;36547;50.514;30.840;2023-07-20T00:32:49;99514.11;;;16.97;66.57
50590;BME280;36547;50.514;30.840;2023-07-20T00:33:52;99513.52;;;16.93;66.63
50590;BME280;36547;50.514;30.840;2023-07-20T00:34:55;99510.12;;;16.91;66.52
50590;BME280;36547;50.514;30.840;2023-07-20T00:35:57;99517.91;;;16.94;66.39
50590;BME280;36547;50.514;30.840;2023-07-20T00:37:00;99511.69;;;16.94;66.37
50590;BME280;36547;50.514;30.840;2023-07-20T00:38:02;99508.55;;;16.89;66.65
50590;BME280;36547;50.514;30.840;2023-07-20T00:39:05;99511.95;;;16.91;66.47
50590;BME280;36547;50.514;30.840;2023-07-20T00:40:10;99508.55;;;16.89;66.55
50590;BME280;36547;50.514;30.840;2023-07-20T00:41:12;99512.25;;;16.88;66.54
50590;BME280;36547;50.514;30.840;2023-07-20T00:42:15;99507.99;;;16.85;66.47
50590;BME280;36547;50.514;30.840;2023-07-20T00:43:17;99509.39;;;16.89;66.39
50590;BME280;36547;50.514;30.840;2023-07-20T00:44:20;99507.14;;;16.85;66.25
50590;BME280;36547;50.514;30.840;2023-07-20T00:45:22;99510.09;;;16.82;66.61
50590;BME280;36547;50.514;30.840;2023-07-20T00:46:26;99503.73;;;16.83;66.43
50590;BME280;36547;50.514;30.840;2023-07-20T00:47:30;99513.63;;;16.82;66.41
50590;BME280;36547;50.514;30.840;2023-07-20T00:48:34;99508.25;;;16.82;66.47
50590;BME280;36547;50.514;30.840;2023-07-20T00:49:38;99509.11;;;16.83;66.74
50590;BME280;36547;50.514;30.840;2023-07-20T00:50:40;99509.69;;;16.86;66.72
50590;BME280;36547;50.514;30.840;2023-07-20T00:51:44;99510.22;;;16.80;67.02
50590;BME280;36547;50.514;30.840;2023-07-20T00:52:47;99513.63;;;16.82;66.82
50590;BME280;36547;50.514;30.840;2023-07-20T00:53:53;99509.23;;;16.81;66.57
50590;BME280;36547;50.514;30.840;2023-07-20T00:54:56;99512.44;;;16.75;67.07
50590;BME280;36547;50.514;30.840;2023-07-20T00:55:58;99508.91;;;16.75;67.05
50590;BME280;36547;50.514;30.840;2023-07-20T00:57:01;99511.76;;;16.73;66.93
50590;BME280;36547;50.514;30.840;2023-07-20T00:58:04;99512.73;;;16.72;66.97
50590;BME280;36547;50.514;30.840;2023-07-20T00:59:07;99518.95;;;16.73;66.86
50590;BME280;36547;50.514;30.840;2023-07-20T01:00:10;99518.80;;;16.74;66.87
50590;BME280;36547;50.514;30.840;2023-07-20T01:01:13;99517.25;;;16.72;67.26
50590;BME280;36547;50.514;30.840;2023-07-20T01:02:15;99518.66;;;16.76;67.08
50590;BME280;36547;50.514;30.840;2023-07-20T01:03:18;99519.52;;;16.76;66.99
50590;BME280;36547;50.514;30.840;2023-07-20T01:04:21;99513.59;;;16.73;67.52
50590;BME280;36547;50.514;30.840;2023-07-20T01:05:27;99514.44;;;16.73;67.60
50590;BME280;36547;50.514;30.840;2023-07-20T01:07:51;99514.44;;;16.73;67.65
50590;BME280;36547;50.514;30.840;2023-07-20T01:10:21;99504.87;;;16.90;67.46
50590;BME280;36547;50.514;30.840;2023-07-20T01:11:31;99518.80;;;16.74;67.32
50590;BME280;36547;50.514;30.840;2023-07-20T01:12:42;99510.05;;;16.72;67.58
50590;BME280;36547;50.514;30.840;2023-07-20T01:13:45;99514.14;;;16.76;67.30
50590;BME280;36547;50.514;30.840;2023-07-20T01:14:49;99509.77;;;16.75;66.98
50590;BME280;36547;50.514;30.840;2023-07-20T01:16:01;99518.41;;;16.79;66.78
50590;BME280;36547;50.514;30.840;2023-07-20T01:17:04;99515.00;;;16.77;67.00
50590;BME280;36547;50.514;30.840;2023-07-20T01:18:07;99517.29;;;16.81;66.90
50590;BME280;36547;50.514;30.840;2023-07-20T01:19:09;99514.60;;;16.81;66.91
50590;BME280;36547;50.514;30.840;2023-07-20T01:20:14;99517.03;;;16.84;66.92
50590;BME280;36547;50.514;30.840;2023-07-20T01:25:16;99514.57;;;16.72;66.97
50590;BME280;36547;50.514;30.840;2023-07-20T01:26:32;99525.17;;;16.73;66.89
50590;BME280;36547;50.514;30.840;2023-07-20T01:29:45;99520.95;;;16.80;66.86
50590;BME280;36547;50.514;30.840;2023-07-20T01:32:16;99519.52;;;16.76;66.31
50590;BME280;36547;50.514;30.840;2023-07-20T01:33:19;99517.55;;;16.78;66.17
50590;BME280;36547;50.514;30.840;2023-07-20T01:34:24;99514.14;;;16.76;66.15
50590;BME280;36547;50.514;30.840;2023-07-20T01:35:29;99514.44;;;16.73;66.61
50590;BME280;36547;50.514;30.840;2023-07-20T01:36:34;99515.26;;;16.74;66.41
50590;BME280;36547;50.514;30.840;2023-07-20T01:37:38;99509.33;;;16.70;66.42
50590;BME280;36547;50.514;30.840;2023-07-20T01:38:41;99517.77;;;16.66;66.63
50590;BME280;36547;50.514;30.840;2023-07-20T01:39:44;99516.92;;;16.65;66.57
50590;BME280;36547;50.514;30.840;2023-07-20T01:40:47;99516.30;;;16.61;66.51
50590;BME280;36547;50.514;30.840;2023-07-20T01:41:50;99516.72;;;16.57;66.51
50590;BME280;36547;50.514;30.840;2023-07-20T01:42:53;99520.81;;;16.61;66.55
50590;BME280;36547;50.514;30.840;2023-07-20T01:43:59;99525.62;;;16.57;66.75
50590;BME280;36547;50.514;30.840;2023-07-20T01:45:01;99518.13;;;16.61;66.67
50590;BME280;36547;50.514;30.840;2023-07-20T01:46:04;99519.41;;;16.57;66.75
50590;BME280;36547;50.514;30.840;2023-07-20T01:47:07;99522.22;;;16.55;66.64
50590;BME280;36547;50.514;30.840;2023-07-20T01:48:10;99516.26;;;16.52;66.90
50590;BME280;36547;50.514;30.840;2023-07-20T01:49:12;99525.03;;;16.54;66.80
50590;BME280;36547;50.514;30.840;2023-07-20T01:50:15;99521.63;;;16.52;66.57
50590;BME280;36547;50.514;30.840;2023-07-20T01:51:17;99520.05;;;16.49;66.63
50590;BME280;36547;50.514;30.840;2023-07-20T01:52:23;99516.52;;;16.49;66.78
50590;BME280;36547;50.514;30.840;2023-07-20T01:53:26;99524.69;;;16.47;67.01
50590;BME280;36547;50.514;30.840;2023-07-20T01:54:28;99526.39;;;16.48;66.82
50590;BME280;36547;50.514;30.840;2023-07-20T01:55:31;99520.18;;;16.48;66.83
50590;BME280;36547;50.514;30.840;2023-07-20T01:56:33;99522.98;;;16.46;66.77
50590;BME280;36547;50.514;30.840;2023-07-20T01:57:36;99524.12;;;16.44;66.90
50590;BME280;36547;50.514;30.840;2023-07-20T01:58:38;99526.94;;;16.42;66.85
50590;BME280;36547;50.514;30.840;2023-07-20T01:59:41;99516.47;;;16.39;67.09
50590;BME280;36547;50.514;30.840;2023-07-20T02:00:44;99512.81;;;16.40;66.96
50590;BME280;36547;50.514;30.840;2023-07-20T02:01:46;99520.44;;;16.45;66.92
50590;BME280;36547;50.514;30.840;2023-07-20T02:02:49;99520.98;;;16.39;67.29
50590;BME280;36547;50.514;30.840;2023-07-20T02:03:52;99517.32;;;16.40;67.17
50590;BME280;36547;50.514;30.840;2023-07-20T02:04:54;99517.83;;;16.34;67.39
50590;BME280;36547;50.514;30.840;2023-07-20T02:05:57;99516.85;;;16.35;67.32
50590;BME280;36547;50.514;30.840;2023-07-20T02:07:00;99519.28;;;16.38;67.24
50590;BME280;36547;50.514;30.840;2023-07-20T02:08:03;99521.49;;;16.33;67.51
50590;BME280;36547;50.514;30.840;2023-07-20T02:09:05;99528.00;;;16.30;67.69
50590;BME280;36547;50.514;30.840;2023-07-20T02:10:08;99520.94;;;16.29;67.71
50590;BME280;36547;50.514;30.840;2023-07-20T02:11:11;99518.09;;;16.31;67.63
50590;BME280;36547;50.514;30.840;2023-07-20T02:12:14;99523.73;;;16.28;67.88
50590;BME280;36547;50.514;30.840;2023-07-20T02:13:16;99520.08;;;16.29;67.82
50590;BME280;36547;50.514;30.840;2023-07-20T02:14:19;99523.14;;;16.24;67.75
50590;BME280;36547;50.514;30.840;2023-07-20T02:15:22;99520.59;;;16.22;67.75
50590;BME280;36547;50.514;30.840;2023-07-20T02:16:26;99520.59;;;16.22;67.88
50590;BME280;36547;50.514;30.840;2023-07-20T02:17:29;99516.93;;;16.23;67.79
50590;BME280;36547;50.514;30.840;2023-07-20T02:18:31;99519.86;;;16.20;67.93
50590;BME280;36547;50.514;30.840;2023-07-20T02:19:34;99526.80;;;16.23;67.93
50590;BME280;36547;50.514;30.840;2023-07-20T02:20:36;99523.40;;;16.21;67.91
50590;BME280;36547;50.514;30.840;2023-07-20T02:21:39;99528.37;;;16.25;67.67
50590;BME280;36547;50.514;30.840;2023-07-20T02:22:42;99521.57;;;16.21;68.02
50590;BME280;36547;50.514;30.840;2023-07-20T02:23:45;99524.25;;;16.21;67.85
50590;BME280;36547;50.514;30.840;2023-07-20T02:24:48;99524.97;;;16.23;67.96
50590;BME280;36547;50.514;30.840;2023-07-20T02:25:51;99526.94;;;16.21;67.80
50590;BME280;36547;50.514;30.840;2023-07-20T02:26:53;99522.42;;;16.22;67.73
50590;BME280;36547;50.514;30.840;2023-07-20T02:27:56;99527.91;;;16.20;67.66
50590;BME280;36547;50.514;30.840;2023-07-20T02:28:58;99524.25;;;16.21;67.58
50590;BME280;36547;50.514;30.840;2023-07-20T02:30:01;99522.55;;;16.20;67.50
50590;BME280;36547;50.514;30.840;2023-07-20T02:31:04;99526.46;;;16.16;68.09
50590;BME280;36547;50.514;30.840;2023-07-20T02:32:07;99519.99;;;16.19;67.59
50590;BME280;36547;50.514;30.840;2023-07-20T02:33:09;99523.09;;;16.14;67.84
50590;BME280;36547;50.514;30.840;2023-07-20T02:34:12;99518.58;;;16.15;67.78
50590;BME280;36547;50.514;30.840;2023-07-20T02:35:17;99522.36;;;16.12;67.80
50590;BME280;36547;50.514;30.840;2023-07-20T02:36:19;99526.75;;;16.13;67.91
50590;BME280;36547;50.514;30.840;2023-07-20T02:37:23;99521.64;;;16.10;68.02
50590;BME280;36547;50.514;30.840;2023-07-20T02:38:26;99523.22;;;16.13;67.60
50590;BME280;36547;50.514;30.840;2023-07-20T02:39:28;99527.72;;;16.12;67.57
50590;BME280;36547;50.514;30.840;2023-07-20T02:40:31;99521.51;;;16.12;67.97
50590;BME280;36547;50.514;30.840;2023-07-20T02:41:34;99523.09;;;16.14;67.97
50590;BME280;36547;50.514;30.840;2023-07-20T02:42:36;99530.41;;;16.12;67.91
50590;BME280;36547;50.514;30.840;2023-07-20T02:43:38;99525.42;;;16.08;68.20
50590;BME280;36547;50.514;30.840;2023-07-20T02:44:41;99526.27;;;16.08;67.97
50590;BME280;36547;50.514;30.840;2023-07-20T02:45:44;99527.13;;;16.09;68.24
50590;BME280;36547;50.514;30.840;2023-07-20T02:46:46;99526.52;;;16.05;68.60
50590;BME280;36547;50.514;30.840;2023-07-20T02:47:49;99525.30;;;16.09;68.37
50590;BME280;36547;50.514;30.840;2023-07-20T02:48:53;99523.59;;;16.08;68.46
50590;BME280;36547;50.514;30.840;2023-07-20T02:49:56;99517.38;;;16.08;68.27
50590;BME280;36547;50.514;30.840;2023-07-20T02:50:59;99520.19;;;16.06;68.71
50590;BME280;36547;50.514;30.840;2023-07-20T02:52:02;99521.16;;;16.05;68.86
50590;BME280;36547;50.514;30.840;2023-07-20T02:53:04;99518.23;;;16.08;68.67
50590;BME280;36547;50.514;30.840;2023-07-20T02:54:06;99516.88;;;16.14;68.48
50590;BME280;36547;50.514;30.840;2023-07-20T02:55:09;99525.61;;;16.16;68.53
50590;BME280;36547;50.514;30.840;2023-07-20T02:56:12;99515.73;;;16.16;68.52
50590;BME280;36547;50.514;30.840;2023-07-20T02:57:14;99523.52;;;16.19;68.52
50590;BME280;36547;50.514;30.840;2023-07-20T02:58:16;99518.03;;;16.21;68.72
50590;BME280;36547;50.514;30.840;2023-07-20T02:59:19;99516.80;;;16.25;68.62
50590;BME280;36547;50.514;30.840;2023-07-20T03:00:21;99518.25;;;16.29;68.54
50590;BME280;36547;50.514;30.840;2023-07-20T03:01:24;99525.45;;;16.29;68.49
50590;BME280;36547;50.514;30.840;2023-07-20T03:02:29;99516.42;;;16.30;68.55
50590;BME280;36547;50.514;30.840;2023-07-20T03:03:30;99522.09;;;16.36;68.41
50590;BME280;36547;50.514;30.840;2023-07-20T03:04:33;99517.58;;;16.37;68.70
50590;BME280;36547;50.514;30.840;2023-07-20T03:05:36;99515.63;;;16.39;68.64
50590;BME280;36547;50.514;30.840;2023-07-20T03:06:39;99518.77;;;16.44;68.48
50590;BME280;36547;50.514;30.840;2023-07-20T03:07:42;99513.11;;;16.47;68.55
50590;BME280;36547;50.514;30.840;2023-07-20T03:08:44;99519.92;;;16.51;68.56
50590;BME280;36547;50.514;30.840;2023-07-20T03:09:46;99517.23;;;16.51;68.72
50590;BME280;36547;50.514;30.840;2023-07-20T03:10:49;99516.98;;;16.54;68.79
50590;BME280;36547;50.514;30.840;2023-07-20T03:11:51;99523.92;;;16.56;68.72
50590;BME280;36547;50.514;30.840;2023-07-20T03:12:54;99523.79;;;16.58;68.78
50590;BME280;36547;50.514;30.840;2023-07-20T03:13:59;99516.30;;;16.61;68.69
50590;BME280;36547;50.514;30.840;2023-07-20T03:15:03;99518.89;;;16.63;68.67
50590;BME280;36547;50.514;30.840;2023-07-20T03:16:12;99509.50;;;16.78;68.33
50590;BME280;36547;50.514;30.840;2023-07-20T03:17:16;99517.64;;;16.67;68.32
50590;BME280;36547;50.514;30.840;2023-07-20T03:18:20;99526.28;;;16.71;68.31
50590;BME280;36547;50.514;30.840;2023-07-20T03:19:22;99513.59;;;16.73;68.55
50590;BME280;36547;50.514;30.840;2023-07-20T03:20:25;99519.64;;;16.75;68.74
50590;BME280;36547;50.514;30.840;2023-07-20T03:21:27;99526.84;;;16.74;69.18
50590;BME280;36547;50.514;30.840;2023-07-20T03:22:30;99518.66;;;16.76;69.08
50590;BME280;36547;50.514;30.840;2023-07-20T03:23:34;99524.88;;;16.76;68.79
50590;BME280;36547;50.514;30.840;2023-07-20T03:24:36;99519.25;;;16.79;68.64
50590;BME280;36547;50.514;30.840;2023-07-20T03:25:39;99519.97;;;16.81;68.72
50590;BME280;36547;50.514;30.840;2023-07-20T03:26:42;99524.23;;;16.84;68.72
50590;BME280;36547;50.514;30.840;2023-07-20T03:27:45;99516.77;;;16.87;68.98
50590;BME280;36547;50.514;30.840;2023-07-20T03:28:48;99520.13;;;16.89;69.09
50590;BME280;36547;50.514;30.840;2023-07-20T03:29:51;99523.54;;;16.91;69.14
50590;BME280;36547;50.514;30.840;2023-07-20T03:30:56;99517.05;;;16.94;69.07
50590;BME280;36547;50.514;30.840;2023-07-20T03:32:00;99517.64;;;16.98;69.01
50590;BME280;36547;50.514;30.840;2023-07-20T03:33:02;99519.08;;;17.02;68.61
50590;BME280;36547;50.514;30.840;2023-07-20T03:34:05;99518.91;;;17.03;68.11
50590;BME280;36547;50.514;30.840;2023-07-20T03:35:08;99505.22;;;17.06;68.01
50590;BME280;36547;50.514;30.840;2023-07-20T03:36:10;99519.10;;;17.11;67.88
50590;BME280;36547;50.514;30.840;2023-07-20T03:37:13;99512.61;;;17.14;68.01
50590;BME280;36547;50.514;30.840;2023-07-20T03:38:15;99512.31;;;17.17;67.98
50590;BME280;36547;50.514;30.840;2023-07-20T03:39:18;99514.87;;;17.18;68.02
50590;BME280;36547;50.514;30.840;2023-07-20T03:40:21;99512.77;;;17.22;68.34
50590;BME280;36547;50.514;30.840;2023-07-20T03:41:23;99515.19;;;17.25;67.53
50590;BME280;36547;50.514;30.840;2023-07-20T03:42:25;99513.08;;;17.28;67.60
50590;BME280;36547;50.514;30.840;2023-07-20T03:43:28;99515.33;;;17.33;68.00
50590;BME280;36547;50.514;30.840;2023-07-20T03:44:31;99518.73;;;17.35;67.86
50590;BME280;36547;50.514;30.840;2023-07-20T03:45:34;99521.86;;;17.40;67.84
50590;BME280;36547;50.514;30.840;2023-07-20T03:46:36;99523.44;;;17.43;68.01
50590;BME280;36547;50.514;30.840;2023-07-20T03:47:39;99522.31;;;17.45;68.68
50590;BME280;36547;50.514;30.840;2023-07-20T03:48:41;99521.02;;;17.49;68.76
50590;BME280;36547;50.514;30.840;2023-07-20T03:49:43;99523.44;;;17.52;68.26
50590;BME280;36547;50.514;30.840;2023-07-20T03:50:47;99520.75;;;17.52;68.51
50590;BME280;36547;50.514;30.840;2023-07-20T03:51:50;99519.49;;;17.56;68.35
50590;BME280;36547;50.514;30.840;2023-07-20T03:52:52;99523.75;;;17.59;68.09
50590;BME280;36547;50.514;30.840;2023-07-20T03:53:55;99520.08;;;17.60;65.33
50590;BME280;36547;50.514;30.840;2023-07-20T03:54:58;99517.96;;;17.63;65.47
50590;BME280;36547;50.514;30.840;2023-07-20T03:56:00;99522.35;;;17.64;64.41
50590;BME280;36547;50.514;30.840;2023-07-20T03:57:03;99524.05;;;17.65;63.68
50590;BME280;36547;50.514;30.840;2023-07-20T03:58:07;99523.78;;;17.69;63.68
50590;BME280;36547;50.514;30.840;2023-07-20T03:59:09;99517.42;;;17.70;63.53
50590;BME280;36547;50.514;30.840;2023-07-20T04:00:13;99528.75;;;17.73;63.45
50590;BME280;36547;50.514;30.840;2023-07-20T04:01:15;99523.20;;;17.75;63.52
50590;BME280;36547;50.514;30.840;2023-07-20T04:02:17;99520.23;;;17.78;63.63
50590;BME280;36547;50.514;30.840;2023-07-20T04:03:20;99527.17;;;17.80;64.01
50590;BME280;36547;50.514;30.840;2023-07-20T04:04:22;99519.25;;;17.79;63.04
50590;BME280;36547;50.514;30.840;2023-07-20T04:05:25;99526.19;;;17.81;63.30
50590;BME280;36547;50.514;30.840;2023-07-20T04:06:27;99527.75;;;17.84;63.19
50590;BME280;36547;50.514;30.840;2023-07-20T04:07:30;99528.47;;;17.86;63.13
50590;BME280;36547;50.514;30.840;2023-07-20T04:08:32;99523.80;;;17.88;63.23
50590;BME280;36547;50.514;30.840;2023-07-20T04:09:34;99526.32;;;17.89;63.41
50590;BME280;36547;50.514;30.840;2023-07-20T04:10:37;99522.64;;;17.90;63.25
50590;BME280;36547;50.514;30.840;2023-07-20T04:11:40;99521.52;;;17.93;63.09
50590;BME280;36547;50.514;30.840;2023-07-20T04:12:44;99523.93;;;17.96;63.13
50590;BME280;36547;50.514;30.840;2023-07-20T04:13:46;99520.97;;;17.99;63.14
50590;BME280;36547;50.514;30.840;2023-07-20T04:14:49;99524.36;;;18.01;62.53
50590;BME280;36547;50.514;30.840;2023-07-20T04:15:51;99520.69;;;18.02;62.44
50590;BME280;36547;50.514;30.840;2023-07-20T04:16:54;99522.39;;;18.03;62.26
50590;BME280;36547;50.514;30.840;2023-07-20T04:17:56;99531.13;;;18.05;63.02
50590;BME280;36547;50.514;30.840;2023-07-20T04:18:59;99525.62;;;18.07;62.95
50590;BME280;36547;50.514;30.840;2023-07-20T04:20:02;99517.41;;;18.08;62.83
50590;BME280;36547;50.514;30.840;2023-07-20T04:21:05;99520.09;;;18.08;62.81
50590;BME280;36547;50.514;30.840;2023-07-20T04:22:08;99518.12;;;18.10;62.48
50590;BME280;36547;50.514;30.840;2023-07-20T04:23:10;99514.44;;;18.11;62.75
50590;BME280;36547;50.514;30.840;2023-07-20T04:24:13;99519.68;;;18.13;63.17
50590;BME280;36547;50.514;30.840;2023-07-20T04:25:17;99515.86;;;18.15;63.38
50590;BME280;36547;50.514;30.840;2023-07-20T04:26:19;99519.27;;;18.17;62.63
50590;BME280;36547;50.514;30.840;2023-07-20T04:27:22;99522.63;;;18.19;62.98
50590;BME280;36547;50.514;30.840;2023-07-20T04:28:25;99517.96;;;18.21;63.05
50590;BME280;36547;50.514;30.840;2023-07-20T04:29:28;99520.37;;;18.24;63.17
50590;BME280;36547;50.514;30.840;2023-07-20T04:30:31;99519.23;;;18.27;63.20
50590;BME280;36547;50.514;30.840;2023-07-20T04:31:34;99522.64;;;18.29;62.96
50590;BME280;36547;50.514;30.840;2023-07-20T04:32:38;99518.81;;;18.31;62.90
50590;BME280;36547;50.514;30.840;2023-07-20T04:33:42;99515.10;;;18.32;63.14
50590;BME280;36547;50.514;30.840;2023-07-20T04:34:45;99521.91;;;18.36;63.23
50590;BME280;36547;50.514;30.840;2023-07-20T04:35:54;99513.55;;;18.40;63.28
50590;BME280;36547;50.514;30.840;2023-07-20T04:37:01;99521.34;;;18.43;63.63
50590;BME280;36547;50.514;30.840;2023-07-20T04:38:03;99519.36;;;18.45;63.66
50590;BME280;36547;50.514;30.840;2023-07-20T04:39:06;99513.83;;;18.46;63.69
50590;BME280;36547;50.514;30.840;2023-07-20T04:40:15;99525.12;;;18.50;64.09
50590;BME280;36547;50.514;30.840;2023-07-20T04:41:18;99520.45;;;18.52;64.19
50590;BME280;36547;50.514;30.840;2023-07-20T04:42:22;99513.80;;;18.56;64.28
50590;BME280;36547;50.514;30.840;2023-07-20T04:43:24;99515.25;;;18.60;65.12
50590;BME280;36547;50.514;30.840;2023-07-20T04:44:27;99518.61;;;18.62;64.75
50590;BME280;36547;50.514;30.840;2023-07-20T04:45:29;99510.25;;;18.65;64.62
50590;BME280;36547;50.514;30.840;2023-07-20T04:46:32;99517.05;;;18.69;65.25
50590;BME280;36547;50.514;30.840;2023-07-20T04:47:38;99505.14;;;18.71;65.81
50590;BME280;36547;50.514;30.840;2023-07-20T04:48:40;99504.86;;;18.75;65.08
50590;BME280;36547;50.514;30.840;2023-07-20T04:49:43;99514.31;;;18.79;64.45
50590;BME280;36547;50.514;30.840;2023-07-20T04:50:46;99513.17;;;18.81;64.45
50590;BME280;36547;50.514;30.840;2023-07-20T04:51:51;99509.20;;;18.85;64.69
50590;BME280;36547;50.514;30.840;2023-07-20T04:53:59;99513.11;;;19.00;64.46
50590;BME280;36547;50.514;30.840;2023-07-20T04:55:04;99511.14;;;18.93;64.42
50590;BME280;36547;50.514;30.840;2023-07-20T04:56:08;99509.70;;;18.98;65.43
50590;BME280;36547;50.514;30.840;2023-07-20T04:57:12;99515.51;;;19.03;65.34
50590;BME280;36547;50.514;30.840;2023-07-20T04:58:16;99520.57;;;19.06;65.17
50590;BME280;36547;50.514;30.840;2023-07-20T04:59:20;99521.13;;;19.10;65.71
50590;BME280;36547;50.514;30.840;2023-07-20T05:00:23;99514.45;;;19.14;66.56
50590;BME280;36547;50.514;30.840;2023-07-20T05:01:25;99516.01;;;19.17;66.48
50590;BME280;36547;50.514;30.840;2023-07-20T05:02:28;99518.38;;;19.20;66.27
50590;BME280;36547;50.514;30.840;2023-07-20T05:03:30;99520.78;;;19.23;65.85
50590;BME280;36547;50.514;30.840;2023-07-20T05:04:33;99523.18;;;19.26;65.79
50590;BME280;36547;50.514;30.840;2023-07-20T05:05:37;99523.59;;;19.31;65.77
50590;BME280;36547;50.514;30.840;2023-07-20T05:06:40;99514.33;;;19.33;63.92
50590;BME280;36547;50.514;30.840;2023-07-20T05:07:42;99522.82;;;19.38;63.89
50590;BME280;36547;50.514;30.840;2023-07-20T05:08:45;99514.59;;;19.40;63.47
50590;BME280;36547;50.514;30.840;2023-07-20T05:09:47;99513.30;;;19.44;62.91
50590;BME280;36547;50.514;30.840;2023-07-20T05:10:50;99513.84;;;19.48;63.61
50590;BME280;36547;50.514;30.840;2023-07-20T05:11:52;99511.70;;;19.51;63.21
50590;BME280;36547;50.514;30.840;2023-07-20T05:12:54;99512.26;;;19.55;62.95
50590;BME280;36547;50.514;30.840;2023-07-20T05:13:56;99518.20;;;19.58;62.27
50590;BME280;36547;50.514;30.840;2023-07-20T05:14:59;99513.51;;;19.60;62.46
50590;BME280;36547;50.514;30.840;2023-07-20T05:16:02;99512.18;;;19.64;62.76
50590;BME280;36547;50.514;30.840;2023-07-20T05:17:05;99517.27;;;19.67;62.41
50590;BME280;36547;50.514;30.840;2023-07-20T05:18:08;99516.97;;;19.70;62.40
50590;BME280;36547;50.514;30.840;2023-07-20T05:19:11;99517.67;;;19.72;62.43
50590;BME280;36547;50.514;30.840;2023-07-20T05:20:14;99513.83;;;19.75;62.30
50590;BME280;36547;50.514;30.840;2023-07-20T05:21:17;99517.04;;;19.78;61.68
50590;BME280;36547;50.514;30.840;2023-07-20T05:22:20;99514.05;;;19.82;61.61
50590;BME280;36547;50.514;30.840;2023-07-20T05:23:22;99516.44;;;19.85;61.85
50590;BME280;36547;50.514;30.840;2023-07-20T05:24:25;99514.14;;;19.90;62.61
50590;BME280;36547;50.514;30.840;2023-07-20T05:25:28;99519.20;;;19.93;62.13
50590;BME280;36547;50.514;30.840;2023-07-20T05:26:32;99516.20;;;19.96;61.93
50590;BME280;36547;50.514;30.840;2023-07-20T05:27:36;99516.74;;;19.99;61.81
50590;BME280;36547;50.514;30.840;2023-07-20T05:28:39;99514.59;;;20.03;62.01
50590;BME280;36547;50.514;30.840;2023-07-20T05:29:45;99509.89;;;20.05;61.81
50590;BME280;36547;50.514;30.840;2023-07-20T05:30:50;99509.25;;;20.11;62.35
50590;BME280;36547;50.514;30.840;2023-07-20T05:31:54;99510.80;;;20.13;62.03
50590;BME280;36547;50.514;30.840;2023-07-20T05:32:56;99511.34;;;20.17;61.68
50590;BME280;36547;50.514;30.840;2023-07-20T05:33:59;99508.30;;;20.20;61.65
50590;BME280;36547;50.514;30.840;2023-07-20T05:35:02;99509.69;;;20.24;61.51
50590;BME280;36547;50.514;30.840;2023-07-20T05:36:04;99501.29;;;20.27;61.31
50590;BME280;36547;50.514;30.840;2023-07-20T05:37:27;99495.73;;;20.29;61.26
50590;BME280;36547;50.514;30.840;2023-07-20T05:38:29;99497.79;;;20.35;60.90
50590;BME280;36547;50.514;30.840;2023-07-20T05:39:32;99497.36;;;20.39;61.01
50590;BME280;36547;50.514;30.840;2023-07-20T05:40:40;99499.75;;;20.42;61.32
50590;BME280;36547;50.514;30.840;2023-07-20T05:41:43;99491.34;;;20.45;60.99
50590;BME280;36547;50.514;30.840;2023-07-20T05:42:45;99489.99;;;20.50;60.58